Terminal Aerodrome Forecast
Issued by NWS

Home | Current Version | Previous Version | Text Only | Print | Product List | Glossary On
Versions: 1 2 3 4 5 6 7 8 9 10 11 12 13 14 15 16 17 18 19 20 21
000
FTUS43 KMQT 231700
TAFCMX
TAF
KCMX 231738Z 2318/2418 19009KT P6SM -SHRA OVC025
     FM232000 19004KT P6SM OVC015
     FM240300 21004KT P6SM SCT020
     FM240500 22004KT P6SM SCT040
     FM241100 18003KT P6SM SCT140
     FM241700 22007KT P6SM SCT140=

USA.gov is the U.S. government's official web portal to all federal, state and local government web resources and services.